Time;durP1;ratioP1;P1;durP2;ratioP2;P2;SDS_P1;SDS_P2;PMS_P1;PMS_P2;Temp;Humidity;BMP_temperature;BMP_pressure;BME280_temperature;BME280_humidity;BME280_pressure;Samples;Min_cycle;Max_cycle;Signal;HPM_P1;HPM_P2
2023/03/08 00:01:27;;;;;;;2.00;1.67;;;7.20;76.30;;;;;;4970066;28;20667;-73
2023/03/08 00:03:57;;;;;;;1.43;1.33;;;7.10;76.50;;;;;;4954774;28;20272;-74
2023/03/08 00:06:24;;;;;;;1.60;1.50;;;7.10;76.60;;;;;;4975533;28;20277;-73
2023/03/08 00:08:54;;;;;;;1.63;1.53;;;7.00;76.60;;;;;;4977664;28;20188;-74
2023/03/08 00:11:20;;;;;;;2.70;1.23;;;7.10;76.40;;;;;;4977095;28;20217;-74
2023/03/08 00:13:46;;;;;;;3.17;1.27;;;7.10;76.70;;;;;;4975501;28;20252;-74
2023/03/08 00:16:12;;;;;;;4.00;1.40;;;7.00;76.40;;;;;;4972274;28;20209;-74
2023/03/08 00:18:38;;;;;;;6.00;1.70;;;7.00;76.80;;;;;;4977822;28;20186;-73
2023/03/08 00:21:07;;;;;;;2.60;0.90;;;7.00;76.60;;;;;;4975148;28;20697;-73
2023/03/08 00:23:33;;;;;;;1.60;1.50;;;6.90;76.70;;;;;;4972356;28;20178;-73
2023/03/08 00:26:00;;;;;;;3.07;1.43;;;6.90;76.60;;;;;;4975543;28;20620;-73
2023/03/08 00:28:26;;;;;;;1.10;1.00;;;6.90;76.70;;;;;;4976371;28;20193;-73
2023/03/08 00:30:55;;;;;;;1.70;1.60;;;6.90;76.20;;;;;;4980046;28;20184;-74
2023/03/08 00:33:21;;;;;;;1.00;1.00;;;6.90;76.80;;;;;;4958649;28;20187;-73
2023/03/08 00:36:12;;;;;;;1.23;1.17;;;6.90;76.40;;;;;;4976969;28;20185;-74
2023/03/08 00:38:38;;;;;;;1.80;1.10;;;6.90;77.40;;;;;;4975241;28;20276;-73
2023/03/08 00:41:04;;;;;;;0.80;0.80;;;6.90;77.30;;;;;;4973219;28;20625;-73
2023/03/08 00:43:30;;;;;;;1.47;1.00;;;6.90;77.40;;;;;;4974334;28;20188;-74
2023/03/08 00:45:55;;;;;;;1.77;0.97;;;6.90;77.30;;;;;;4974141;28;20189;-73
2023/03/08 00:48:21;;;;;;;1.90;1.70;;;7.00;76.30;;;;;;4973352;28;20268;-73
2023/03/08 00:50:48;;;;;;;2.83;1.33;;;6.90;77.40;;;;;;4953547;28;20648;-73
2023/03/08 00:53:13;;;;;;;1.10;1.00;;;6.90;77.00;;;;;;4976478;28;20702;-73
2023/03/08 00:55:49;;;;;;;1.47;0.90;;;6.80;77.90;;;;;;4976672;28;20191;-74
2023/03/08 00:58:14;;;;;;;1.10;0.90;;;6.80;77.00;;;;;;4984495;28;20959;-74
2023/03/08 01:00:40;;;;;;;1.13;0.90;;;6.90;77.20;;;;;;4978606;28;20190;-74
2023/03/08 01:03:06;;;;;;;0.77;0.77;;;6.90;76.80;;;;;;4979620;28;20248;-74
2023/03/08 01:05:31;;;;;;;1.37;1.07;;;6.90;77.40;;;;;;4980298;28;20186;-74
2023/03/08 01:07:57;;;;;;;1.27;0.93;;;6.90;77.60;;;;;;4981301;28;20190;-74
2023/03/08 01:10:22;;;;;;;1.80;1.03;;;6.90;77.40;;;;;;4977457;28;20625;-74
2023/03/08 01:12:48;;;;;;;1.27;1.17;;;6.90;77.50;;;;;;4976265;28;20269;-74
2023/03/08 01:15:14;;;;;;;1.10;1.10;;;6.90;77.60;;;;;;4976766;28;20178;-74
2023/03/08 01:17:40;;;;;;;1.57;1.30;;;6.90;78.00;;;;;;4976091;28;20577;-74
2023/03/08 01:20:06;;;;;;;1.10;0.90;;;6.90;77.60;;;;;;4978646;28;20229;-74
2023/03/08 01:22:32;;;;;;;1.03;1.03;;;6.80;77.80;;;;;;4980602;28;20187;-74
2023/03/08 01:24:58;;;;;;;1.17;1.10;;;6.70;78.30;;;;;;4979235;28;20185;-74
2023/03/08 01:27:23;;;;;;;0.97;0.97;;;6.70;77.70;;;;;;4979127;28;20646;-74
2023/03/08 01:29:49;;;;;;;3.53;1.03;;;6.70;78.40;;;;;;4980462;28;20650;-74
2023/03/08 01:32:15;;;;;;;1.07;1.07;;;6.60;78.40;;;;;;4977627;28;20194;-73
2023/03/08 01:34:40;;;;;;;1.30;1.30;;;6.60;78.90;;;;;;4982286;28;20697;-73
2023/03/08 01:37:06;;;;;;;1.40;1.30;;;6.60;78.90;;;;;;4980365;28;20279;-73
2023/03/08 01:39:31;;;;;;;1.90;1.53;;;6.60;78.70;;;;;;4972884;28;20186;-74
2023/03/08 01:41:57;;;;;;;2.73;1.90;;;6.50;78.60;;;;;;4975720;28;20193;-74
2023/03/08 01:44:23;;;;;;;2.10;1.20;;;6.50;79.10;;;;;;4977179;28;20516;-74
2023/03/08 01:46:49;;;;;;;1.27;1.20;;;6.50;79.10;;;;;;4978702;28;20193;-74
2023/03/08 01:49:20;;;;;;;2.17;1.37;;;6.40;79.10;;;;;;4977554;28;20269;-74
2023/03/08 01:51:52;;;;;;;1.87;1.43;;;6.40;79.10;;;;;;4981489;28;20249;-74
2023/03/08 01:54:35;;;;;;;1.10;1.10;;;6.30;79.30;;;;;;4982121;28;20195;-74
2023/03/08 01:57:05;;;;;;;1.20;1.10;;;6.30;79.20;;;;;;4975189;28;20299;-74
2023/03/08 01:59:32;;;;;;;1.33;1.23;;;6.30;79.50;;;;;;4961608;28;20186;-73
2023/03/08 02:01:59;;;;;;;1.67;1.57;;;6.20;79.80;;;;;;4978403;28;20208;-74
2023/03/08 02:04:26;;;;;;;0.90;0.90;;;6.20;79.90;;;;;;4974477;28;20201;-74
2023/03/08 02:06:51;;;;;;;0.97;0.97;;;6.20;79.70;;;;;;4983167;28;20193;-74
2023/03/08 02:09:18;;;;;;;4.50;1.30;;;6.20;79.90;;;;;;4979596;28;20805;-75
2023/03/08 02:11:45;;;;;;;1.27;1.17;;;6.20;80.40;;;;;;4973409;28;20293;-74
2023/03/08 02:14:11;;;;;;;4.30;1.07;;;6.10;80.30;;;;;;4979218;28;20188;-74
2023/03/08 02:16:37;;;;;;;1.17;1.03;;;6.10;79.50;;;;;;4976242;28;20209;-74
2023/03/08 02:19:19;;;;;;;1.17;1.17;;;6.10;79.90;;;;;;4977869;28;20265;-75
2023/03/08 02:21:44;;;;;;;2.40;1.10;;;6.10;80.30;;;;;;4978589;28;20209;-73
2023/03/08 02:24:19;;;;;;;1.43;1.33;;;6.10;79.80;;;;;;4972271;28;20244;-73
2023/03/08 02:26:45;;;;;;;1.10;1.00;;;6.00;80.90;;;;;;4980176;28;20216;-73
2023/03/08 02:29:11;;;;;;;1.33;1.23;;;6.10;80.60;;;;;;4974384;28;20237;-75
2023/03/08 02:31:36;;;;;;;1.67;1.57;;;6.10;79.90;;;;;;4976585;28;20210;-74
2023/03/08 02:34:02;;;;;;;1.73;1.63;;;6.10;80.80;;;;;;4979400;28;20220;-74
2023/03/08 02:36:27;;;;;;;2.50;2.20;;;6.10;80.90;;;;;;4979321;28;20205;-75
2023/03/08 02:38:53;;;;;;;4.10;2.23;;;6.00;81.60;;;;;;4977762;28;20226;-73
2023/03/08 02:41:19;;;;;;;3.00;2.40;;;6.00;81.50;;;;;;4977060;28;20192;-74
2023/03/08 02:43:45;;;;;;;2.10;2.00;;;6.00;81.30;;;;;;4972637;28;20659;-73
2023/03/08 02:46:14;;;;;;;2.47;2.20;;;6.00;81.10;;;;;;4980046;28;20216;-75
2023/03/08 02:48:40;;;;;;;2.70;2.00;;;6.00;81.00;;;;;;4958661;28;20190;-73
2023/03/08 02:51:05;;;;;;;3.67;2.57;;;6.00;81.50;;;;;;4974734;28;20766;-75
2023/03/08 02:53:31;;;;;;;4.70;2.17;;;5.90;81.50;;;;;;4978067;28;20186;-74
2023/03/08 02:55:56;;;;;;;3.60;2.37;;;5.90;82.50;;;;;;4977361;28;20174;-74
2023/03/08 02:58:22;;;;;;;3.73;2.17;;;5.80;82.10;;;;;;4974755;28;20550;-73
2023/03/08 03:00:48;;;;;;;2.77;2.17;;;5.80;81.90;;;;;;4980748;28;20659;-73
2023/03/08 03:03:15;;;;;;;3.00;2.67;;;5.70;82.80;;;;;;4973618;28;20198;-73
2023/03/08 03:05:42;;;;;;;2.97;2.40;;;5.70;82.10;;;;;;4978431;28;20186;-74
2023/03/08 03:08:08;;;;;;;2.87;2.23;;;5.70;82.70;;;;;;4979015;28;20190;-73
2023/03/08 03:10:35;;;;;;;2.10;1.80;;;5.70;82.00;;;;;;4979361;28;20672;-74
2023/03/08 03:13:01;;;;;;;2.77;2.13;;;5.70;82.30;;;;;;4978563;28;20186;-74
2023/03/08 03:15:27;;;;;;;3.47;1.63;;;5.70;81.60;;;;;;4977763;28;20245;-74
2023/03/08 03:17:52;;;;;;;2.80;2.07;;;5.70;82.60;;;;;;4973591;28;20717;-73
2023/03/08 03:20:18;;;;;;;4.57;1.77;;;5.70;83.00;;;;;;4974171;28;20182;-74
2023/03/08 03:22:45;;;;;;;3.93;1.83;;;5.60;83.30;;;;;;4976227;28;20277;-74
2023/03/08 03:25:12;;;;;;;4.43;1.67;;;5.60;82.90;;;;;;4976199;28;20310;-74
2023/03/08 03:27:37;;;;;;;1.90;1.73;;;5.50;83.30;;;;;;4978857;28;20182;-74
2023/03/08 03:30:05;;;;;;;2.70;1.80;;;5.60;82.70;;;;;;4976222;28;20190;-74
2023/03/08 03:32:30;;;;;;;1.17;1.17;;;5.50;82.80;;;;;;4977897;28;20209;-74
2023/03/08 03:34:56;;;;;;;2.50;1.43;;;5.50;82.70;;;;;;4977613;28;20190;-74
2023/03/08 03:37:22;;;;;;;2.43;1.80;;;5.40;83.70;;;;;;4958750;28;20805;-74
2023/03/08 03:39:47;;;;;;;1.87;1.47;;;5.30;84.20;;;;;;4978496;28;20813;-74
2023/03/08 03:42:13;;;;;;;3.03;2.00;;;5.30;83.50;;;;;;4979193;28;20190;-73
2023/03/08 03:44:39;;;;;;;3.47;1.43;;;5.30;84.00;;;;;;4975533;28;20189;-73
2023/03/08 03:47:05;;;;;;;1.70;1.60;;;5.30;83.80;;;;;;4976930;28;20228;-74
2023/03/08 03:49:31;;;;;;;2.40;1.67;;;5.30;83.70;;;;;;4982701;28;20214;-74
2023/03/08 03:51:58;;;;;;;2.03;1.87;;;5.30;83.80;;;;;;4974719;28;20206;-74
2023/03/08 03:54:23;;;;;;;1.83;1.73;;;5.30;84.30;;;;;;4977739;28;20193;-74
2023/03/08 03:56:49;;;;;;;2.20;1.10;;;5.30;83.60;;;;;;4977099;28;20838;-73
2023/03/08 03:59:15;;;;;;;1.40;1.33;;;5.30;84.00;;;;;;4973985;28;20691;-74
2023/03/08 04:01:40;;;;;;;1.63;1.60;;;5.20;84.10;;;;;;4976656;28;20750;-74
2023/03/08 04:04:09;;;;;;;2.57;1.83;;;5.20;84.20;;;;;;4976847;28;20228;-73
2023/03/08 04:06:34;;;;;;;2.40;1.63;;;5.20;84.30;;;;;;4975269;28;20365;-73
2023/03/08 04:09:04;;;;;;;1.80;1.70;;;5.10;84.20;;;;;;4972659;28;20276;-73
2023/03/08 04:11:35;;;;;;;1.57;1.37;;;5.10;84.50;;;;;;4975668;28;20181;-74
2023/03/08 04:14:01;;;;;;;1.00;1.00;;;5.10;84.00;;;;;;4974533;28;20236;-74
2023/03/08 04:16:30;;;;;;;1.30;1.20;;;5.10;84.40;;;;;;4979198;28;20221;-74
2023/03/08 04:19:02;;;;;;;4.20;1.50;;;5.00;84.50;;;;;;4976981;28;20320;-74
2023/03/08 04:21:28;;;;;;;0.97;0.97;;;5.00;84.60;;;;;;4973140;28;20651;-73
2023/03/08 04:23:55;;;;;;;1.50;1.40;;;5.00;84.60;;;;;;4980554;28;20272;-72
2023/03/08 04:26:21;;;;;;;5.00;1.80;;;5.10;84.70;;;;;;4977147;28;20215;-74
2023/03/08 04:28:47;;;;;;;1.53;1.43;;;5.00;84.60;;;;;;4980010;28;20754;-74
2023/03/08 04:31:14;;;;;;;1.67;1.40;;;5.00;84.80;;;;;;4976680;28;20224;-74
2023/03/08 04:33:40;;;;;;;4.33;1.53;;;5.00;84.80;;;;;;4978601;28;20189;-74
2023/03/08 04:36:06;;;;;;;1.00;1.00;;;5.00;84.80;;;;;;4978759;28;20215;-73
2023/03/08 04:38:32;;;;;;;2.80;1.50;;;4.90;84.80;;;;;;4974458;28;20248;-73
2023/03/08 04:41:01;;;;;;;3.60;1.50;;;5.00;85.00;;;;;;4976662;28;20190;-74
2023/03/08 04:43:27;;;;;;;2.10;1.40;;;4.90;85.00;;;;;;4980632;28;20193;-74
2023/03/08 04:45:53;;;;;;;1.47;1.37;;;4.90;85.20;;;;;;4978767;28;20198;-74
2023/03/08 04:48:19;;;;;;;3.30;1.80;;;4.90;85.30;;;;;;4979436;28;20244;-74
2023/03/08 04:50:55;;;;;;;3.67;1.13;;;4.90;85.30;;;;;;4981214;28;20266;-75
2023/03/08 04:53:21;;;;;;;1.80;1.40;;;5.00;85.30;;;;;;4981563;28;20284;-73
2023/03/08 04:55:47;;;;;;;1.80;1.17;;;5.00;85.30;;;;;;4974493;28;20179;-73
2023/03/08 04:58:14;;;;;;;2.97;1.60;;;5.00;85.30;;;;;;4976240;28;20224;-73
2023/03/08 05:00:39;;;;;;;3.00;1.30;;;5.00;85.30;;;;;;4975729;28;20251;-75
2023/03/08 05:03:05;;;;;;;1.43;1.33;;;5.00;85.30;;;;;;4977104;28;20201;-76
2023/03/08 05:05:31;;;;;;;1.50;1.40;;;5.00;85.30;;;;;;4980817;28;20192;-75
2023/03/08 05:07:58;;;;;;;2.87;1.23;;;5.00;85.30;;;;;;4976424;28;20956;-75
2023/03/08 05:10:24;;;;;;;1.53;1.43;;;5.10;85.40;;;;;;4963289;28;20190;-75
2023/03/08 05:12:50;;;;;;;2.60;2.10;;;5.10;85.40;;;;;;4979512;28;20738;-77
2023/03/08 05:15:16;;;;;;;2.73;1.57;;;5.10;85.30;;;;;;4980003;28;20194;-75
2023/03/08 05:17:41;;;;;;;1.93;1.83;;;5.20;85.50;;;;;;4979586;28;20217;-75
2023/03/08 05:20:08;;;;;;;1.33;1.33;;;5.20;85.10;;;;;;4983231;28;20195;-77
2023/03/08 05:22:34;;;;;;;2.73;2.00;;;5.20;85.30;;;;;;4980327;28;20192;-77
2023/03/08 05:24:59;;;;;;;1.37;1.27;;;5.20;85.10;;;;;;4979117;28;20182;-75
2023/03/08 05:27:25;;;;;;;1.63;1.53;;;5.30;86.00;;;;;;4980606;28;20214;-74
2023/03/08 05:29:51;;;;;;;2.00;1.67;;;5.40;86.00;;;;;;4978055;28;20186;-75
2023/03/08 05:32:17;;;;;;;4.20;1.47;;;5.40;85.30;;;;;;4979816;28;20197;-76
2023/03/08 05:34:43;;;;;;;1.30;1.30;;;5.50;85.60;;;;;;4978293;28;20785;-75
2023/03/08 05:37:08;;;;;;;1.30;1.27;;;5.40;85.70;;;;;;4982141;28;20295;-75
2023/03/08 05:39:34;;;;;;;1.73;1.63;;;5.50;85.30;;;;;;4977175;28;20186;-75
2023/03/08 05:42:00;;;;;;;3.47;1.77;;;5.50;83.80;;;;;;4979445;28;20192;-75
2023/03/08 05:44:25;;;;;;;1.90;1.47;;;5.50;84.60;;;;;;4981172;28;20193;-75
2023/03/08 05:46:52;;;;;;;3.60;1.73;;;5.50;83.90;;;;;;4981565;28;20639;-79
2023/03/08 05:49:18;;;;;;;1.37;1.27;;;5.60;83.70;;;;;;4976308;28;20184;-78
2023/03/08 05:51:43;;;;;;;1.97;1.87;;;5.60;83.70;;;;;;4985198;28;20186;-78
2023/03/08 05:54:09;;;;;;;1.87;1.73;;;5.60;83.80;;;;;;4995003;28;20190;-79
2023/03/08 05:56:35;;;;;;;2.17;1.90;;;5.50;84.80;;;;;;4986688;28;20629;-79
2023/03/08 05:59:00;;;;;;;2.97;1.50;;;5.50;84.70;;;;;;4985052;28;20696;-81
2023/03/08 06:01:27;;;;;;;2.87;1.33;;;5.50;84.90;;;;;;4984349;28;20190;-80
2023/03/08 06:03:55;;;;;;;1.63;1.53;;;5.50;85.10;;;;;;4982429;28;20722;-77
2023/03/08 06:06:23;;;;;;;5.13;2.03;;;5.50;85.50;;;;;;4979473;28;20272;-77
2023/03/08 06:08:49;;;;;;;1.93;1.83;;;5.50;85.40;;;;;;4979691;28;20708;-77
2023/03/08 06:11:16;;;;;;;2.43;1.80;;;5.60;85.30;;;;;;4975415;28;20221;-78
2023/03/08 06:13:41;;;;;;;1.77;1.77;;;5.60;85.20;;;;;;4979116;28;20283;-78
2023/03/08 06:16:08;;;;;;;1.90;1.80;;;5.70;85.10;;;;;;4976737;28;20206;-77
2023/03/08 06:18:38;;;;;;;2.07;1.80;;;5.70;85.10;;;;;;4983451;28;20197;-77
2023/03/08 06:21:18;;;;;;;3.47;2.10;;;5.80;85.20;;;;;;4982207;28;20309;-80
2023/03/08 06:23:44;;;;;;;6.53;2.20;;;5.80;84.70;;;;;;4973007;28;20726;-80
2023/03/08 06:26:11;;;;;;;3.83;2.20;;;5.90;85.20;;;;;;4980369;28;20186;-78
2023/03/08 06:28:39;;;;;;;4.60;2.60;;;6.10;85.10;;;;;;4979688;28;20607;-80
2023/03/08 06:31:05;;;;;;;4.23;2.13;;;6.20;84.70;;;;;;4977660;28;20190;-79
2023/03/08 06:33:32;;;;;;;4.90;2.47;;;6.30;84.50;;;;;;4981722;28;20182;-77
2023/03/08 06:36:09;;;;;;;4.10;2.60;;;6.40;84.20;;;;;;4972630;28;20182;-78
2023/03/08 06:38:37;;;;;;;3.57;2.13;;;6.50;84.30;;;;;;4981232;28;20205;-76
2023/03/08 06:41:04;;;;;;;2.30;1.57;;;6.60;83.60;;;;;;4977461;28;20917;-78
2023/03/08 06:43:30;;;;;;;2.07;1.73;;;6.70;83.10;;;;;;4979899;28;20209;-78
2023/03/08 06:45:56;;;;;;;2.10;2.00;;;6.70;83.10;;;;;;4975862;28;20701;-78
2023/03/08 06:48:22;;;;;;;2.70;2.27;;;6.80;83.20;;;;;;4977051;28;20182;-78
2023/03/08 06:50:49;;;;;;;1.17;1.17;;;6.90;83.30;;;;;;4976000;28;20209;-78
2023/03/08 06:53:15;;;;;;;2.67;1.60;;;6.90;82.70;;;;;;4979153;28;20701;-79
2023/03/08 06:55:41;;;;;;;3.87;1.70;;;7.00;81.80;;;;;;4974060;28;20186;-78
2023/03/08 06:58:07;;;;;;;1.33;1.33;;;7.10;81.70;;;;;;4978274;28;20284;-77
2023/03/08 07:00:33;;;;;;;1.10;1.10;;;7.20;82.20;;;;;;4978263;28;20678;-79
2023/03/08 07:02:59;;;;;;;1.10;0.97;;;7.30;81.50;;;;;;4977628;28;20191;-76
2023/03/08 07:05:25;;;;;;;1.87;1.60;;;7.40;80.50;;;;;;4979877;28;20244;-78
2023/03/08 07:07:51;;;;;;;1.67;1.60;;;7.40;81.20;;;;;;4976330;28;20315;-78
2023/03/08 07:10:19;;;;;;;2.03;1.83;;;7.50;81.40;;;;;;4977914;28;20264;-78
2023/03/08 07:12:48;;;;;;;1.73;1.63;;;7.70;81.10;;;;;;4955752;28;20592;-78
2023/03/08 07:15:17;;;;;;;1.63;1.53;;;7.80;80.40;;;;;;4986900;28;20577;-78
2023/03/08 07:17:44;;;;;;;1.37;1.33;;;8.00;80.70;;;;;;4978757;28;20289;-79
2023/03/08 07:20:12;;;;;;;3.33;1.70;;;8.30;80.60;;;;;;4978080;28;20181;-78
2023/03/08 07:22:40;;;;;;;2.10;1.90;;;8.60;79.20;;;;;;4978903;28;20256;-79
2023/03/08 07:25:07;;;;;;;3.47;1.73;;;8.90;78.20;;;;;;4974924;28;20202;-77
2023/03/08 07:27:33;;;;;;;3.00;2.10;;;9.10;77.60;;;;;;4978526;28;20190;-78
2023/03/08 07:29:58;;;;;;;2.17;2.07;;;9.30;76.70;;;;;;4975020;28;20196;-79
2023/03/08 07:32:27;;;;;;;2.73;2.40;;;9.40;76.20;;;;;;4984730;28;20204;-79
2023/03/08 07:34:54;;;;;;;2.60;2.40;;;9.60;75.80;;;;;;4981414;28;20269;-79
2023/03/08 07:37:19;;;;;;;4.18;2.08;;;9.70;75.40;;;;;;4979628;28;20219;-78
2023/03/08 07:39:45;;;;;;;3.00;2.77;;;9.90;75.50;;;;;;4981296;28;20182;-77
2023/03/08 07:42:11;;;;;;;4.00;2.28;;;10.10;74.80;;;;;;4976931;28;20686;-79
2023/03/08 07:44:37;;;;;;;4.10;2.70;;;10.30;74.40;;;;;;4975930;28;20186;-78
2023/03/08 07:47:04;;;;;;;2.00;1.90;;;10.60;74.10;;;;;;4979463;28;20198;-77
2023/03/08 07:49:30;;;;;;;2.72;2.53;;;10.80;73.60;;;;;;4980687;28;20186;-78
2023/03/08 07:51:56;;;;;;;2.38;2.22;;;11.10;73.10;;;;;;4977863;28;20178;-78
2023/03/08 07:54:22;;;;;;;6.78;2.78;;;11.30;72.20;;;;;;4978893;28;20185;-79
2023/03/08 07:56:48;;;;;;;3.10;2.58;;;11.50;71.40;;;;;;4981281;28;20729;-79
2023/03/08 07:59:14;;;;;;;3.38;2.13;;;11.80;71.10;;;;;;4980911;28;20723;-78
2023/03/08 08:01:39;;;;;;;2.90;2.17;;;12.10;70.40;;;;;;4977105;28;20189;-78
2023/03/08 08:04:07;;;;;;;3.13;2.28;;;12.30;69.50;;;;;;4978659;28;20182;-79
2023/03/08 08:06:34;;;;;;;3.88;2.33;;;12.50;69.10;;;;;;4976860;28;20196;-78
2023/03/08 08:09:00;;;;;;;2.25;2.10;;;12.70;68.70;;;;;;4974800;28;20197;-78
2023/03/08 08:11:26;;;;;;;2.75;2.47;;;12.80;68.40;;;;;;4974593;28;20579;-78
2023/03/08 08:13:51;;;;;;;2.33;2.13;;;12.90;68.10;;;;;;4974426;28;20186;-77
2023/03/08 08:16:18;;;;;;;2.10;2.00;;;12.90;68.10;;;;;;4978125;28;20181;-78
2023/03/08 08:18:43;;;;;;;2.00;1.90;;;13.00;68.00;;;;;;4976294;28;20181;-77
2023/03/08 08:21:11;;;;;;;1.90;1.83;;;13.30;68.00;;;;;;4976557;28;21001;-76
2023/03/08 08:23:38;;;;;;;2.47;2.33;;;13.50;67.40;;;;;;4977772;28;20193;-77
2023/03/08 08:26:06;;;;;;;2.45;2.33;;;13.80;67.50;;;;;;4978646;28;20227;-79
2023/03/08 08:28:33;;;;;;;3.22;2.45;;;14.30;66.60;;;;;;4980105;28;20198;-79
2023/03/08 08:31:04;;;;;;;2.25;2.15;;;14.90;66.30;;;;;;4974935;28;20236;-77
2023/03/08 08:33:31;;;;;;;2.78;2.67;;;15.60;65.00;;;;;;4972381;28;20182;-78
2023/03/08 08:35:58;;;;;;;3.60;3.00;;;16.20;63.00;;;;;;4972880;28;20214;-78
2023/03/08 08:38:25;;;;;;;4.47;3.22;;;17.00;61.80;;;;;;4976735;28;20601;-79
2023/03/08 08:40:51;;;;;;;6.82;2.13;;;18.00;60.80;;;;;;4977589;28;20273;-79
2023/03/08 08:43:17;;;;;;;2.80;2.65;;;19.00;59.90;;;;;;4976305;28;20624;-79
2023/03/08 08:45:48;;;;;;;4.32;2.95;;;20.10;57.60;;;;;;4976715;28;20212;-78
2023/03/08 08:48:14;;;;;;;3.50;3.10;;;21.00;54.40;;;;;;4974209;28;20187;-79
2023/03/08 08:50:41;;;;;;;4.68;2.85;;;21.70;54.40;;;;;;4975335;28;20194;-78
2023/03/08 08:53:09;;;;;;;3.35;3.05;;;22.40;54.30;;;;;;4973551;28;20198;-78
2023/03/08 08:55:34;;;;;;;4.72;2.85;;;22.90;53.50;;;;;;4974111;28;20206;-77
2023/03/08 08:58:02;;;;;;;4.05;3.17;;;23.10;50.80;;;;;;4974561;28;20253;-78
2023/03/08 09:00:28;;;;;;;6.60;2.90;;;22.50;50.70;;;;;;4973461;28;20185;-78
2023/03/08 09:02:54;;;;;;;2.92;2.75;;;21.80;53.50;;;;;;4977667;28;20186;-77
2023/03/08 09:05:19;;;;;;;7.05;3.00;;;21.20;53.20;;;;;;4975886;28;20270;-77
2023/03/08 09:07:45;;;;;;;2.78;2.58;;;20.60;53.10;;;;;;4976846;28;20194;-76
2023/03/08 09:10:11;;;;;;;4.43;3.22;;;19.80;53.80;;;;;;4974996;28;20190;-77
2023/03/08 09:12:37;;;;;;;5.45;3.25;;;19.30;56.20;;;;;;4975780;28;20233;-77
2023/03/08 09:15:05;;;;;;;4.40;3.50;;;18.70;56.20;;;;;;4979635;28;20264;-77
2023/03/08 09:17:32;;;;;;;5.32;3.47;;;18.20;56.60;;;;;;4980171;28;20296;-77
2023/03/08 09:19:58;;;;;;;3.90;3.47;;;17.70;58.00;;;;;;4985479;28;20178;-76
2023/03/08 09:22:25;;;;;;;4.60;3.13;;;17.30;59.00;;;;;;4976474;28;20183;-76
2023/03/08 09:24:51;;;;;;;5.82;3.70;;;16.90;59.60;;;;;;4975457;28;20178;-75
2023/03/08 09:27:16;;;;;;;3.33;3.13;;;16.50;59.80;;;;;;4961659;28;20217;-75
2023/03/08 09:29:42;;;;;;;3.78;3.38;;;16.30;61.30;;;;;;4978049;28;20182;-76
2023/03/08 09:32:08;;;;;;;3.53;3.30;;;16.20;61.30;;;;;;4977172;28;20189;-76
2023/03/08 09:34:33;;;;;;;3.40;3.20;;;16.40;61.40;;;;;;4977330;28;20193;-75
2023/03/08 09:36:59;;;;;;;3.95;3.67;;;16.60;61.10;;;;;;4960541;28;20220;-75
2023/03/08 09:39:26;;;;;;;3.13;2.97;;;16.90;60.40;;;;;;4977953;28;20194;-76
2023/03/08 09:41:54;;;;;;;6.95;3.38;;;17.40;59.90;;;;;;4977488;28;20179;-75
2023/03/08 09:44:44;;;;;;;5.25;3.40;;;17.80;58.90;;;;;;4975126;28;20188;-75
2023/03/08 09:47:22;;;;;;;4.68;3.08;;;18.20;58.60;;;;;;4975900;28;20194;-75
2023/03/08 09:49:51;;;;;;;6.75;3.45;;;19.00;58.30;;;;;;4977869;28;20709;-75
2023/03/08 09:53:02;;;;;;;4.65;3.30;;;20.10;56.30;;;;;;4979783;28;20186;-76
2023/03/08 09:55:33;;;;;;;3.25;2.97;;;21.40;55.00;;;;;;4891769;29;20725;-76
2023/03/08 09:58:12;;;;;;;3.65;3.35;;;23.00;53.10;;;;;;4894899;29;20303;-75
2023/03/08 10:00:39;;;;;;;4.90;3.78;;;24.30;50.90;;;;;;4891650;29;20200;-76
2023/03/08 10:03:26;;;;;;;3.97;3.55;;;25.00;50.40;;;;;;4893255;29;20180;-76
2023/03/08 10:06:05;;;;;;;3.88;3.45;;;25.50;48.60;;;;;;4892213;29;20227;-76
2023/03/08 10:08:39;;;;;;;6.63;3.78;;;25.60;49.30;;;;;;4891923;29;20214;-76
2023/03/08 10:11:12;;;;;;;4.45;3.60;;;25.40;47.70;;;;;;4895785;29;20838;-76
2023/03/08 10:13:45;;;;;;;7.70;4.28;;;25.10;47.80;;;;;;4890758;29;20200;-75
2023/03/08 10:16:22;;;;;;;4.50;3.17;;;24.90;49.20;;;;;;4891938;29;20790;-76
2023/03/08 10:18:53;;;;;;;4.43;3.75;;;24.70;48.50;;;;;;4894753;29;20283;-77
2023/03/08 10:21:22;;;;;;;4.22;3.80;;;24.70;49.20;;;;;;4891699;29;20204;-74
2023/03/08 10:23:57;;;;;;;5.70;4.13;;;24.80;50.30;;;;;;4875922;29;20196;-75
2023/03/08 10:26:24;;;;;;;4.57;3.95;;;24.80;48.90;;;;;;4890082;29;20200;-76
2023/03/08 10:28:50;;;;;;;4.50;3.95;;;24.40;50.20;;;;;;4898743;29;20883;-76
2023/03/08 10:31:27;;;;;;;4.72;3.78;;;24.50;48.50;;;;;;4914257;28;20197;-76
2023/03/08 10:34:13;;;;;;;4.57;3.60;;;24.50;48.90;;;;;;4974638;28;20252;-78
2023/03/08 10:36:55;;;;;;;3.50;3.20;;;24.70;47.80;;;;;;4957550;28;20209;-78
2023/03/08 10:39:21;;;;;;;4.20;3.47;;;24.90;48.20;;;;;;4959070;28;20550;-78
2023/03/08 10:41:50;;;;;;;4.88;3.60;;;24.80;47.80;;;;;;4981775;28;20186;-75
2023/03/08 10:44:35;;;;;;;4.22;3.85;;;24.20;47.80;;;;;;4978201;28;20573;-72
2023/03/08 10:47:15;;;;;;;4.07;3.22;;;23.70;48.90;;;;;;4978595;28;20190;-76
2023/03/08 10:49:42;;;;;;;4.53;3.08;;;23.10;50.70;;;;;;4979960;28;20188;-74
2023/03/08 10:52:26;;;;;;;5.78;3.10;;;23.00;50.50;;;;;;4980184;28;20205;-75
2023/03/08 10:55:09;;;;;;;6.53;3.75;;;22.90;50.70;;;;;;4977877;28;20639;-75
2023/03/08 10:57:35;;;;;;;5.30;3.55;;;22.90;50.00;;;;;;4977075;28;20240;-77
2023/03/08 11:00:39;;;;;;;3.33;3.08;;;22.70;50.50;;;;;;4978389;28;20187;-74
2023/03/08 11:03:15;;;;;;;4.10;2.25;;;22.30;50.20;;;;;;4977100;28;20542;-75
2023/03/08 11:06:03;;;;;;;2.97;2.00;;;22.00;51.20;;;;;;4976503;28;20192;-75
2023/03/08 11:08:34;;;;;;;4.63;2.85;;;21.70;49.90;;;;;;4975438;28;20197;-75
2023/03/08 11:11:01;;;;;;;3.00;2.80;;;21.50;51.30;;;;;;4980001;28;20217;-78
2023/03/08 11:13:34;;;;;;;5.85;2.97;;;21.30;52.40;;;;;;4981136;28;20194;-76
2023/03/08 11:16:19;;;;;;;2.70;2.50;;;21.10;52.20;;;;;;4975388;28;20201;-75
2023/03/08 11:19:00;;;;;;;0.73;0.73;;;20.90;51.60;;;;;;4947295;28;20235;-75
2023/03/08 11:21:41;;;;;;;0.70;0.70;;;20.50;49.50;;;;;;4948560;28;20202;-75
2023/03/08 11:24:39;;;;;;;0.68;0.60;;;19.80;51.80;;;;;;4952037;28;20194;-74
2023/03/08 11:27:04;;;;;;;0.30;0.30;;;19.80;50.60;;;;;;4949811;28;20739;-75
2023/03/08 11:29:40;;;;;;;0.30;0.30;;;19.70;50.70;;;;;;4952560;28;20254;-74
2023/03/08 11:32:28;;;;;;;0.30;0.30;;;19.30;50.30;;;;;;4951764;28;20295;-75
2023/03/08 11:35:03;;;;;;;0.40;0.40;;;19.20;51.70;;;;;;4949520;28;20778;-74
2023/03/08 11:37:29;;;;;;;0.57;0.40;;;19.30;51.90;;;;;;4946928;28;20225;-76
2023/03/08 11:40:12;;;;;;;0.75;0.38;;;19.20;52.00;;;;;;4944987;28;20191;-74
2023/03/08 11:43:13;;;;;;;0.60;0.60;;;19.00;51.40;;;;;;4946509;28;20249;-76
2023/03/08 11:45:57;;;;;;;0.75;0.38;;;18.90;52.00;;;;;;4933683;29;20711;-75
2023/03/08 11:48:56;;;;;;;0.40;0.40;;;18.80;52.70;;;;;;4935636;28;20203;-75
2023/03/08 11:51:56;;;;;;;0.40;0.40;;;19.30;52.50;;;;;;4882494;29;20197;-74
2023/03/08 11:54:40;;;;;;;0.73;0.45;;;19.80;51.80;;;;;;4824830;29;20279;-75
2023/03/08 11:57:12;;;;;;;0.32;0.32;;;19.80;51.10;;;;;;4825472;29;20231;-74
2023/03/08 12:00:07;;;;;;;0.47;0.20;;;19.40;51.60;;;;;;4827765;29;20195;-74
2023/03/08 12:02:38;;;;;;;0.30;0.30;;;19.40;51.10;;;;;;4824286;29;20207;-75
2023/03/08 12:05:32;;;;;;;1.38;0.30;;;19.40;50.20;;;;;;4828570;29;20199;-75
2023/03/08 12:08:30;;;;;;;0.90;0.30;;;18.80;50.80;;;;;;4825620;29;20321;-74
2023/03/08 12:11:03;;;;;;;0.35;0.30;;;18.70;51.60;;;;;;4825132;29;20514;-75
2023/03/08 12:13:43;;;;;;;0.40;0.40;;;18.50;52.70;;;;;;4823689;29;20194;-76
2023/03/08 12:16:23;;;;;;;0.40;0.40;;;18.40;51.60;;;;;;4825680;29;20239;-76
2023/03/08 12:18:58;;;;;;;0.80;0.30;;;18.10;52.40;;;;;;4826235;29;20207;-75
2023/03/08 12:21:33;;;;;;;0.38;0.38;;;17.90;52.80;;;;;;4829022;29;20297;-76
2023/03/08 12:24:20;;;;;;;0.40;0.30;;;17.90;52.80;;;;;;4838389;29;21969;-75
2023/03/08 12:26:50;;;;;;;0.30;0.30;;;17.60;53.30;;;;;;4837073;29;20206;-78
2023/03/08 12:29:23;;;;;;;0.30;0.30;;;17.40;53.80;;;;;;4895158;29;20287;-76
2023/03/08 12:31:50;;;;;;;0.30;0.30;;;17.10;54.50;;;;;;4966597;28;20198;-77
2023/03/08 12:34:37;;;;;;;0.35;0.35;;;17.10;55.10;;;;;;4973604;28;20221;-78
2023/03/08 12:37:03;;;;;;;1.65;0.40;;;17.10;54.80;;;;;;4975516;28;20347;-77
2023/03/08 12:39:32;;;;;;;0.43;0.43;;;16.90;54.90;;;;;;4972531;28;20262;-78
2023/03/08 12:42:01;;;;;;;0.40;0.40;;;16.80;55.30;;;;;;4976973;28;20187;-77
2023/03/08 12:44:29;;;;;;;0.70;0.60;;;16.80;55.30;;;;;;4974275;28;20845;-77
2023/03/08 12:47:15;;;;;;;0.95;0.40;;;16.80;55.40;;;;;;4978120;28;20795;-78
2023/03/08 12:49:44;;;;;;;0.50;0.50;;;16.90;54.50;;;;;;4975333;28;20201;-78
2023/03/08 12:52:19;;;;;;;0.50;0.50;;;16.50;55.00;;;;;;4976405;28;20264;-78
2023/03/08 12:54:59;;;;;;;0.32;0.32;;;16.30;55.50;;;;;;4978828;28;20181;-79
2023/03/08 12:57:31;;;;;;;0.50;0.50;;;16.40;55.10;;;;;;4981720;28;20363;-76
2023/03/08 13:00:05;;;;;;;0.55;0.55;;;16.60;55.60;;;;;;4977039;28;20185;-77
2023/03/08 13:02:33;;;;;;;0.60;0.43;;;16.90;54.80;;;;;;4980708;28;20178;-77
2023/03/08 13:05:46;;;;;;;0.30;0.30;;;17.10;54.60;;;;;;4981727;28;20490;-78